createdAt,value
2018-09-09T00:02:10.626Z,18.10
2018-09-09T00:04:39.799Z,18.10
2018-09-09T00:07:09.634Z,18.10
2018-09-09T00:09:44.208Z,18.10
2018-09-09T00:12:14.362Z,18.10
2018-09-09T00:14:42.947Z,18.00
2018-09-09T00:17:11.732Z,18.00
2018-09-09T00:19:40.731Z,18.00
2018-09-09T00:22:09.724Z,18.00
2018-09-09T00:24:38.308Z,18.00
2018-09-09T00:27:06.835Z,18.00
2018-09-09T00:29:35.500Z,18.00
2018-09-09T00:32:04.544Z,17.90
2018-09-09T00:34:33.246Z,17.90
2018-09-09T00:37:02.144Z,17.80
2018-09-09T00:39:31.091Z,17.80
2018-09-09T00:41:59.849Z,17.80
2018-09-09T00:44:28.726Z,17.80
2018-09-09T00:46:57.202Z,17.80
2018-09-09T00:49:30.876Z,17.70
2018-09-09T00:52:04.850Z,17.70
2018-09-09T00:54:33.276Z,17.70
2018-09-09T00:57:01.713Z,17.60
2018-09-09T00:59:30.116Z,17.60
2018-09-09T01:01:58.722Z,17.60
2018-09-09T01:04:27.095Z,17.60
2018-09-09T01:06:55.512Z,17.60
2018-09-09T01:09:29.845Z,17.50
2018-09-09T01:11:58.325Z,17.50
2018-09-09T01:14:27.243Z,17.50
2018-09-09T01:16:55.805Z,17.50
2018-09-09T01:19:24.441Z,17.40
2018-09-09T01:21:53.444Z,17.50
2018-09-09T01:24:22.103Z,17.50
2018-09-09T01:26:50.689Z,17.50
2018-09-09T01:29:19.170Z,17.40
2018-09-09T01:31:47.749Z,17.50
2018-09-09T01:34:16.399Z,17.50
2018-09-09T01:36:45.048Z,17.60
2018-09-09T01:39:13.705Z,17.60
2018-09-09T01:41:42.188Z,17.60
2018-09-09T01:44:10.589Z,17.60
2018-09-09T01:46:38.990Z,17.70
2018-09-09T01:49:07.848Z,17.70
2018-09-09T01:51:36.427Z,17.70
2018-09-09T01:54:04.965Z,17.70
2018-09-09T01:56:33.448Z,17.60
2018-09-09T01:59:02.079Z,17.70
2018-09-09T02:01:31.693Z,17.60
2018-09-09T02:04:00.063Z,17.60
2018-09-09T02:06:28.543Z,17.60
2018-09-09T02:08:57.090Z,17.60
2018-09-09T02:11:25.681Z,17.60
2018-09-09T02:13:54.184Z,17.60
2018-09-09T02:16:22.745Z,17.50
2018-09-09T02:18:51.314Z,17.50
2018-09-09T02:21:19.961Z,17.50
2018-09-09T02:23:48.413Z,17.50
2018-09-09T02:26:17.335Z,17.50
2018-09-09T02:28:45.771Z,17.50
2018-09-09T02:31:14.423Z,17.50
2018-09-09T02:33:42.962Z,17.50
2018-09-09T02:36:11.367Z,17.50
2018-09-09T02:38:39.752Z,17.50
2018-09-09T02:41:08.265Z,17.50
2018-09-09T02:43:36.753Z,17.50
2018-09-09T02:46:05.229Z,17.50
2018-09-09T02:48:33.827Z,17.50
2018-09-09T02:51:02.299Z,17.50
2018-09-09T02:53:30.774Z,17.50
2018-09-09T02:55:59.251Z,17.40
2018-09-09T02:58:27.609Z,17.40
2018-09-09T03:00:56.150Z,17.50
2018-09-09T03:03:24.603Z,17.50
2018-09-09T03:05:53.180Z,17.40
2018-09-09T03:08:21.701Z,17.40
2018-09-09T03:10:54.345Z,17.40
2018-09-09T03:13:23.038Z,17.40
2018-09-09T03:15:51.492Z,17.40
2018-09-09T03:18:20.184Z,17.40
2018-09-09T03:20:48.748Z,17.40
2018-09-09T03:23:17.450Z,17.40
2018-09-09T03:25:46.047Z,17.40
2018-09-09T03:28:14.467Z,17.40
2018-09-09T03:30:42.934Z,17.40
2018-09-09T03:33:11.372Z,17.40
2018-09-09T03:35:40.054Z,17.40
2018-09-09T03:38:08.452Z,17.40
2018-09-09T03:40:37.162Z,17.40
2018-09-09T03:43:05.728Z,17.40
2018-09-09T03:45:34.286Z,17.40
2018-09-09T03:48:02.748Z,17.50
2018-09-09T03:50:31.493Z,17.50
2018-09-09T03:53:00.055Z,17.50
2018-09-09T03:55:28.518Z,17.50
2018-09-09T03:57:57.432Z,17.40
2018-09-09T04:00:25.923Z,17.50
2018-09-09T04:02:54.725Z,17.50
2018-09-09T04:05:23.465Z,17.50
2018-09-09T04:07:52.353Z,17.50
2018-09-09T04:10:20.833Z,17.50
2018-09-09T04:12:49.581Z,17.50
2018-09-09T04:15:18.128Z,17.50
2018-09-09T04:17:46.880Z,17.50
2018-09-09T04:20:15.559Z,17.50
2018-09-09T04:22:44.077Z,17.40
2018-09-09T04:25:12.659Z,17.40
2018-09-09T04:27:41.322Z,17.40
2018-09-09T04:30:09.725Z,17.40
2018-09-09T04:32:38.278Z,17.40
2018-09-09T04:35:06.691Z,17.40
2018-09-09T04:37:35.252Z,17.40
2018-09-09T04:40:03.942Z,17.40
2018-09-09T04:42:32.563Z,17.40
2018-09-09T04:45:01.281Z,17.40
2018-09-09T04:47:30.658Z,17.40
2018-09-09T04:49:59.416Z,17.40
2018-09-09T04:52:28.053Z,17.40
2018-09-09T04:54:56.695Z,17.40
2018-09-09T04:57:25.554Z,17.40
2018-09-09T04:59:54.126Z,17.40
2018-09-09T05:02:23.023Z,17.40
2018-09-09T05:04:52.232Z,17.30
2018-09-09T05:07:21.119Z,17.40
2018-09-09T05:09:50.115Z,17.30
2018-09-09T05:12:18.762Z,17.30
2018-09-09T05:14:47.800Z,17.30
2018-09-09T05:17:16.463Z,17.30
2018-09-09T05:19:45.172Z,17.30
2018-09-09T05:22:14.094Z,17.30
2018-09-09T05:24:42.907Z,17.30
2018-09-09T05:27:11.611Z,17.30
2018-09-09T05:29:40.318Z,17.40
2018-09-09T05:32:08.950Z,17.30
2018-09-09T05:34:37.752Z,17.40
2018-09-09T05:37:06.431Z,17.40
2018-09-09T05:39:34.840Z,17.40
2018-09-09T05:42:03.313Z,17.40
2018-09-09T05:44:32.548Z,17.40
2018-09-09T05:47:01.065Z,17.40
2018-09-09T05:49:29.544Z,17.40
2018-09-09T05:51:58.286Z,17.40
2018-09-09T05:54:27.219Z,17.50
2018-09-09T05:56:55.627Z,17.50
2018-09-09T05:59:24.132Z,17.60
2018-09-09T06:01:53.231Z,17.60
2018-09-09T06:04:21.753Z,17.60
2018-09-09T06:06:50.118Z,17.60
2018-09-09T06:09:18.656Z,17.70
2018-09-09T06:11:47.214Z,17.70
2018-09-09T06:14:15.907Z,17.70
2018-09-09T06:16:44.413Z,17.80
2018-09-09T06:19:13.085Z,17.80
2018-09-09T06:21:41.498Z,17.80
2018-09-09T06:24:10.018Z,17.90
2018-09-09T06:26:38.660Z,17.90
2018-09-09T06:29:07.270Z,17.90
2018-09-09T06:31:35.641Z,18.00
2018-09-09T06:34:04.079Z,18.10
2018-09-09T06:36:32.682Z,18.10
2018-09-09T06:39:01.167Z,18.10
2018-09-09T06:41:29.610Z,18.10
2018-09-09T06:43:58.091Z,18.10
2018-09-09T06:46:26.589Z,18.20
2018-09-09T06:48:54.984Z,18.20
2018-09-09T06:51:23.463Z,18.20
2018-09-09T06:53:52.055Z,18.20
2018-09-09T06:56:20.581Z,18.20
2018-09-09T06:58:49.280Z,18.10
2018-09-09T07:01:17.758Z,18.20
2018-09-09T07:03:46.623Z,18.20
2018-09-09T07:06:15.519Z,18.20
2018-09-09T07:08:44.428Z,18.30
2018-09-09T07:11:12.925Z,18.30
2018-09-09T07:13:41.265Z,18.40
2018-09-09T07:16:09.688Z,18.50
2018-09-09T07:18:38.545Z,18.50
2018-09-09T07:21:07.798Z,18.60
2018-09-09T07:23:36.647Z,18.70
2018-09-09T07:26:07.087Z,18.70
2018-09-09T07:28:36.166Z,18.80
2018-09-09T07:31:04.799Z,18.90
2018-09-09T07:33:33.523Z,18.90
2018-09-09T07:36:01.911Z,19.00
2018-09-09T07:38:30.390Z,19.10
2018-09-09T07:40:58.884Z,19.10
2018-09-09T07:43:27.728Z,19.20
2018-09-09T07:45:56.303Z,19.20
2018-09-09T07:48:24.971Z,19.30
2018-09-09T07:50:53.432Z,19.30
2018-09-09T07:53:23.003Z,19.40
2018-09-09T07:55:52.808Z,19.50
2018-09-09T07:58:22.550Z,19.50
2018-09-09T08:00:52.349Z,19.60
2018-09-09T08:03:22.574Z,19.60
2018-09-09T08:05:52.268Z,19.50
2018-09-09T08:08:21.977Z,19.50
2018-09-09T08:10:51.922Z,19.50
2018-09-09T08:13:22.159Z,19.60
2018-09-09T08:15:52.334Z,19.50
2018-09-09T08:18:22.317Z,19.60
2018-09-09T08:20:52.949Z,19.60
2018-09-09T08:23:23.203Z,19.60
2018-09-09T08:25:53.947Z,19.60
2018-09-09T08:28:23.633Z,19.70
2018-09-09T08:30:53.950Z,19.80
2018-09-09T08:33:23.892Z,19.80
2018-09-09T08:35:54.095Z,19.80
2018-09-09T08:38:23.888Z,19.90
2018-09-09T08:40:54.587Z,20.00
2018-09-09T08:43:24.935Z,20.00
2018-09-09T08:45:54.989Z,20.00
2018-09-09T08:48:25.119Z,20.10
2018-09-09T08:50:55.576Z,20.00
2018-09-09T08:53:26.450Z,20.10
2018-09-09T08:55:57.110Z,20.00
2018-09-09T08:58:27.883Z,20.00
2018-09-09T09:00:57.337Z,20.00
2018-09-09T09:03:27.609Z,20.00
2018-09-09T09:05:57.542Z,20.10
2018-09-09T09:08:27.325Z,20.10
2018-09-09T09:10:58.076Z,20.20
2018-09-09T09:13:28.475Z,20.20
2018-09-09T09:15:58.670Z,20.20
2018-09-09T09:18:28.775Z,20.20
2018-09-09T09:20:58.362Z,20.30
2018-09-09T09:23:28.443Z,20.30
2018-09-09T09:25:58.143Z,20.40
2018-09-09T09:28:28.303Z,20.50
2018-09-09T09:30:58.293Z,20.60
2018-09-09T09:33:27.577Z,20.60
2018-09-09T09:35:57.242Z,20.70
2018-09-09T09:38:27.107Z,20.80
2018-09-09T09:40:56.210Z,20.90
2018-09-09T09:43:24.996Z,20.90
2018-09-09T09:45:54.095Z,21.00
2018-09-09T09:48:23.031Z,21.00
2018-09-09T09:50:52.886Z,21.20
2018-09-09T09:53:21.862Z,21.20
2018-09-09T09:55:51.323Z,21.30
2018-09-09T09:58:20.463Z,21.40
2018-09-09T10:00:54.576Z,21.40
2018-09-09T10:03:25.076Z,21.50
2018-09-09T10:05:54.002Z,21.40
2018-09-09T10:08:23.854Z,21.30
2018-09-09T10:10:52.657Z,21.30
2018-09-09T10:13:21.777Z,21.30
2018-09-09T10:15:50.686Z,21.30
2018-09-09T10:18:19.451Z,21.30
2018-09-09T10:20:48.311Z,21.30
2018-09-09T10:23:17.534Z,21.30
2018-09-09T10:25:46.233Z,21.30
2018-09-09T10:28:14.798Z,21.40
2018-09-09T10:30:43.360Z,21.40
2018-09-09T10:33:13.047Z,21.40
2018-09-09T10:35:41.425Z,21.50
2018-09-09T10:38:10.367Z,21.60
2018-09-09T10:40:39.015Z,21.70
2018-09-09T10:43:07.535Z,21.80
2018-09-09T10:45:36.173Z,21.90
2018-09-09T10:48:04.699Z,22.00
2018-09-09T10:50:33.061Z,22.00
2018-09-09T10:53:02.139Z,22.20
2018-09-09T10:55:30.824Z,22.20
2018-09-09T10:57:59.371Z,22.40
2018-09-09T11:00:27.955Z,22.50
2018-09-09T11:02:56.638Z,22.60
2018-09-09T11:05:25.010Z,22.60
2018-09-09T11:07:53.651Z,22.70
2018-09-09T11:10:22.892Z,22.80
2018-09-09T11:12:51.792Z,22.90
2018-09-09T11:15:20.923Z,23.10
2018-09-09T11:17:49.870Z,23.10
2018-09-09T11:20:19.163Z,23.10
2018-09-09T11:22:48.715Z,23.00
2018-09-09T11:25:17.653Z,23.10
2018-09-09T11:27:46.749Z,22.90
2018-09-09T11:30:15.714Z,22.90
2018-09-09T11:32:44.823Z,22.90
2018-09-09T11:35:14.193Z,22.90
2018-09-09T11:37:43.532Z,23.10
2018-09-09T11:40:13.072Z,23.20
2018-09-09T11:42:42.046Z,23.40
2018-09-09T11:45:11.247Z,23.60
2018-09-09T11:47:40.037Z,23.90
2018-09-09T11:50:09.474Z,24.10
2018-09-09T11:52:38.247Z,24.20
2018-09-09T11:55:07.032Z,24.10
2018-09-09T11:57:36.069Z,24.00
2018-09-09T12:00:04.766Z,24.00
2018-09-09T12:02:33.685Z,23.90
2018-09-09T12:05:02.420Z,23.90
2018-09-09T12:07:30.838Z,24.00
2018-09-09T12:09:59.787Z,24.20
2018-09-09T12:12:28.632Z,24.40
2018-09-09T12:14:58.175Z,24.60
2018-09-09T12:17:26.664Z,24.80
2018-09-09T12:19:55.537Z,25.20
2018-09-09T12:22:23.982Z,25.40
2018-09-09T12:24:52.583Z,25.60
2018-09-09T12:27:21.160Z,25.80
2018-09-09T12:29:49.627Z,26.00
2018-09-09T12:32:18.059Z,26.00
2018-09-09T12:34:46.687Z,26.10
2018-09-09T12:37:15.846Z,26.20
2018-09-09T12:39:44.215Z,26.30
2018-09-09T12:42:12.995Z,26.50
2018-09-09T12:44:46.768Z,26.80
2018-09-09T12:47:21.031Z,27.00
2018-09-09T12:49:49.604Z,27.10
2018-09-09T12:52:18.920Z,27.30
2018-09-09T12:54:48.058Z,27.30
2018-09-09T12:57:16.742Z,27.40
2018-09-09T12:59:45.929Z,27.40
2018-09-09T13:02:14.620Z,27.50
2018-09-09T13:04:43.368Z,27.60
2018-09-09T13:07:12.239Z,27.70
2018-09-09T13:09:40.940Z,27.60
2018-09-09T13:12:09.938Z,27.60
2018-09-09T13:14:38.553Z,27.60
2018-09-09T13:17:07.056Z,27.70
2018-09-09T13:19:35.770Z,27.80
2018-09-09T13:22:04.292Z,28.00
2018-09-09T13:24:32.817Z,27.90
2018-09-09T13:27:01.678Z,27.90
2018-09-09T13:29:30.265Z,27.70
2018-09-09T13:31:58.721Z,27.60
2018-09-09T13:34:27.509Z,27.50
2018-09-09T13:36:56.225Z,27.40
2018-09-09T13:39:24.807Z,27.20
2018-09-09T13:41:54.006Z,27.10
2018-09-09T13:44:22.595Z,27.20
2018-09-09T13:46:52.075Z,27.40
2018-09-09T13:49:20.603Z,27.60
2018-09-09T13:51:49.084Z,27.80
2018-09-09T13:54:17.543Z,28.10
2018-09-09T13:56:45.963Z,28.30
2018-09-09T13:59:14.466Z,28.50
2018-09-09T14:01:42.793Z,28.70
2018-09-09T14:04:11.738Z,28.80
2018-09-09T14:06:40.114Z,28.90
2018-09-09T14:09:09.560Z,29.00
2018-09-09T14:11:38.012Z,29.10
2018-09-09T14:14:06.725Z,29.20
2018-09-09T14:16:35.176Z,29.20
2018-09-09T14:19:03.771Z,29.30
2018-09-09T14:21:32.247Z,29.20
2018-09-09T14:24:00.955Z,29.10
2018-09-09T14:26:29.435Z,29.00
2018-09-09T14:28:57.825Z,28.90
2018-09-09T14:31:26.252Z,28.80
2018-09-09T14:33:54.640Z,28.80
2018-09-09T14:36:22.983Z,28.70
2018-09-09T14:38:51.533Z,28.60
2018-09-09T14:41:20.163Z,28.50
2018-09-09T14:43:49.143Z,28.30
2018-09-09T14:46:18.741Z,28.20
2018-09-09T14:48:47.634Z,28.10
2018-09-09T14:51:16.544Z,28.00
2018-09-09T14:53:45.049Z,27.50
2018-09-09T14:56:13.801Z,27.10
2018-09-09T14:58:42.831Z,26.80
2018-09-09T15:01:12.436Z,26.50
2018-09-09T15:03:41.064Z,26.40
2018-09-09T15:06:09.987Z,26.30
2018-09-09T15:08:39.086Z,26.10
2018-09-09T15:11:08.098Z,26.00
2018-09-09T15:14:51.558Z,25.90
2018-09-09T15:17:20.231Z,25.80
2018-09-09T15:19:49.365Z,25.60
2018-09-09T15:22:17.997Z,25.60
2018-09-09T15:24:46.713Z,25.60
2018-09-09T15:27:16.029Z,25.60
2018-09-09T15:29:45.134Z,25.70
2018-09-09T15:32:15.601Z,25.80
2018-09-09T15:34:44.810Z,25.90
2018-09-09T15:37:14.272Z,26.00
2018-09-09T15:39:43.184Z,26.10
2018-09-09T15:42:11.983Z,26.20
2018-09-09T15:44:40.493Z,26.40
2018-09-09T15:47:09.330Z,26.60
2018-09-09T15:49:37.780Z,26.80
2018-09-09T15:52:06.923Z,27.00
2018-09-09T15:54:36.554Z,27.10
2018-09-09T15:57:06.085Z,27.00
2018-09-09T15:59:34.980Z,26.90
2018-09-09T16:02:03.925Z,26.70
2018-09-09T16:04:32.699Z,26.60
2018-09-09T16:07:02.368Z,26.50
2018-09-09T16:09:31.739Z,26.40
2018-09-09T16:12:01.096Z,26.20
2018-09-09T16:14:29.914Z,26.10
2018-09-09T16:16:58.890Z,26.00
2018-09-09T16:19:28.195Z,25.90
2018-09-09T16:21:56.952Z,25.80
2018-09-09T16:24:25.836Z,25.70
2018-09-09T16:26:54.462Z,25.70
2018-09-09T16:29:22.960Z,25.70
2018-09-09T16:31:51.666Z,25.70
2018-09-09T16:34:21.281Z,25.70
2018-09-09T16:36:49.986Z,25.70
2018-09-09T16:39:18.656Z,25.70
2018-09-09T16:41:47.679Z,25.60
2018-09-09T16:44:17.150Z,25.60
2018-09-09T16:46:46.371Z,25.60
2018-09-09T16:49:15.570Z,25.50
2018-09-09T16:51:44.876Z,25.50
2018-09-09T16:54:13.553Z,25.50
2018-09-09T16:56:42.931Z,25.50
2018-09-09T16:59:11.757Z,25.50
2018-09-09T17:01:41.294Z,25.40
2018-09-09T17:04:10.298Z,25.40
2018-09-09T17:06:39.232Z,25.40
2018-09-09T17:09:10.465Z,25.40
2018-09-09T17:11:39.603Z,25.40
2018-09-09T17:14:08.808Z,25.50
2018-09-09T17:16:37.818Z,25.40
2018-09-09T17:19:07.212Z,25.50
2018-09-09T17:21:36.685Z,25.40
2018-09-09T17:24:05.840Z,25.40
2018-09-09T17:26:35.067Z,25.30
2018-09-09T17:29:04.402Z,25.30
2018-09-09T17:31:34.259Z,25.20
2018-09-09T17:34:03.085Z,25.10
2018-09-09T17:36:31.786Z,25.10
2018-09-09T17:39:00.526Z,25.00
2018-09-09T17:41:29.231Z,24.90
2018-09-09T17:43:57.966Z,24.90
2018-09-09T17:46:26.646Z,24.80
2018-09-09T17:48:55.399Z,24.80
2018-09-09T17:51:24.193Z,24.80
2018-09-09T17:53:53.863Z,24.70
2018-09-09T17:56:23.067Z,24.60
2018-09-09T17:58:52.738Z,24.60
2018-09-09T18:01:22.776Z,24.60
2018-09-09T18:03:51.984Z,24.50
2018-09-09T18:06:20.687Z,24.40
2018-09-09T18:08:49.627Z,24.40
2018-09-09T18:11:18.384Z,24.40
2018-09-09T18:13:47.059Z,24.30
2018-09-09T18:16:15.651Z,24.20
2018-09-09T18:18:44.671Z,24.20
2018-09-09T18:21:13.449Z,24.10
2018-09-09T18:23:42.424Z,24.00
2018-09-09T18:26:11.140Z,23.90
2018-09-09T18:28:39.843Z,23.80
2018-09-09T18:31:08.349Z,23.70
2018-09-09T18:33:36.927Z,23.60
2018-09-09T18:36:05.436Z,23.50
2018-09-09T18:38:34.264Z,23.40
2018-09-09T18:41:03.530Z,23.30
2018-09-09T18:43:32.195Z,23.20
2018-09-09T18:46:01.325Z,23.10
2018-09-09T18:48:31.296Z,23.10
2018-09-09T18:50:59.887Z,23.00
2018-09-09T18:53:28.747Z,23.00
2018-09-09T18:55:57.233Z,23.00
2018-09-09T18:58:25.749Z,22.80
2018-09-09T19:00:54.357Z,22.80
2018-09-09T19:03:22.974Z,22.80
2018-09-09T19:05:51.654Z,22.70
2018-09-09T19:08:20.048Z,22.60
2018-09-09T19:10:48.504Z,22.50
2018-09-09T19:13:17.039Z,22.40
2018-09-09T19:15:45.669Z,22.40
2018-09-09T19:18:14.293Z,22.30
2018-09-09T19:20:42.997Z,22.20
2018-09-09T19:23:11.551Z,22.20
2018-09-09T19:25:40.885Z,22.10
2018-09-09T19:28:09.780Z,22.10
2018-09-09T19:30:38.493Z,22.10
2018-09-09T19:33:07.480Z,22.00
2018-09-09T19:35:38.937Z,22.10
2018-09-09T19:38:08.431Z,22.10
2018-09-09T19:40:37.254Z,22.10
2018-09-09T19:43:05.833Z,22.10
2018-09-09T19:45:34.791Z,22.10
2018-09-09T19:48:03.299Z,22.00
2018-09-09T19:50:33.768Z,22.00
2018-09-09T19:53:05.065Z,21.90
2018-09-09T19:55:33.864Z,21.90
2018-09-09T19:58:02.481Z,21.80
2018-09-09T20:00:32.695Z,21.80
2018-09-09T20:03:01.196Z,21.80
2018-09-09T20:05:29.822Z,21.70
2018-09-09T20:07:58.640Z,21.60
2018-09-09T20:10:29.099Z,21.50
2018-09-09T20:12:57.721Z,21.40
2018-09-09T20:15:26.810Z,21.30
2018-09-09T20:17:55.233Z,21.20
2018-09-09T20:20:24.194Z,21.10
2018-09-09T20:22:52.778Z,21.10
2018-09-09T20:25:21.540Z,21.00
2018-09-09T20:27:50.061Z,20.90
2018-09-09T20:30:18.442Z,20.90
2018-09-09T20:32:47.279Z,20.80
2018-09-09T20:35:15.982Z,20.80
2018-09-09T20:37:44.637Z,20.80
2018-09-09T20:40:15.578Z,20.70
2018-09-09T20:42:44.154Z,20.70
2018-09-09T20:45:12.611Z,20.70
2018-09-09T20:47:41.397Z,20.70
2018-09-09T20:50:10.138Z,20.70
2018-09-09T20:52:38.605Z,20.70
2018-09-09T20:55:07.085Z,20.60
2018-09-09T20:57:35.597Z,20.60
2018-09-09T21:00:04.772Z,20.60
2018-09-09T21:02:33.407Z,20.50
2018-09-09T21:05:02.039Z,20.40
2018-09-09T21:07:30.621Z,20.30
2018-09-09T21:09:59.819Z,20.30
2018-09-09T21:12:28.675Z,20.20
2018-09-09T21:14:57.082Z,20.20
2018-09-09T21:17:25.778Z,20.20
2018-09-09T21:19:55.079Z,20.10
2018-09-09T21:22:23.936Z,20.00
2018-09-09T21:24:53.615Z,20.00
2018-09-09T21:27:22.667Z,20.00
2018-09-09T21:29:51.068Z,19.90
2018-09-09T21:32:19.516Z,19.90
2018-09-09T21:34:48.103Z,19.90
2018-09-09T21:37:16.475Z,19.90
2018-09-09T21:39:45.204Z,19.80
2018-09-09T21:42:13.563Z,19.70
2018-09-09T21:44:42.016Z,19.70
2018-09-09T21:47:10.407Z,19.70
2018-09-09T21:49:38.922Z,19.70
2018-09-09T21:52:07.302Z,19.70
2018-09-09T21:54:35.728Z,19.70
2018-09-09T21:57:05.057Z,19.70
2018-09-09T21:59:33.643Z,19.70
2018-09-09T22:02:02.340Z,19.60
2018-09-09T22:04:31.035Z,19.60
2018-09-09T22:06:59.995Z,19.60
2018-09-09T22:09:28.512Z,19.50
2018-09-09T22:11:57.502Z,19.50
2018-09-09T22:14:26.450Z,19.60
2018-09-09T22:16:55.311Z,19.60
2018-09-09T22:19:24.354Z,19.50
2018-09-09T22:21:52.848Z,19.50
2018-09-09T22:24:21.870Z,19.50
2018-09-09T22:26:50.338Z,19.50
2018-09-09T22:29:18.777Z,19.50
2018-09-09T22:31:47.166Z,19.50
2018-09-09T22:34:15.969Z,19.50
2018-09-09T22:36:44.366Z,19.50
2018-09-09T22:39:13.035Z,19.40
2018-09-09T22:41:41.664Z,19.40
2018-09-09T22:44:12.130Z,19.40
2018-09-09T22:46:41.251Z,19.40
2018-09-09T22:49:09.731Z,19.40
2018-09-09T22:51:38.548Z,19.40
2018-09-09T22:54:07.095Z,19.40
2018-09-09T22:56:35.444Z,19.40
2018-09-09T22:59:03.822Z,19.40
2018-09-09T23:01:32.745Z,19.40
2018-09-09T23:04:01.235Z,19.40
2018-09-09T23:06:29.821Z,19.40
2018-09-09T23:08:58.283Z,19.40
2018-09-09T23:11:26.774Z,19.40
2018-09-09T23:13:55.332Z,19.40
2018-09-09T23:16:23.751Z,19.40
2018-09-09T23:18:52.186Z,19.30
2018-09-09T23:21:20.547Z,19.40
2018-09-09T23:23:49.055Z,19.40
2018-09-09T23:26:18.450Z,19.30
2018-09-09T23:28:46.913Z,19.30
2018-09-09T23:31:15.414Z,19.30
2018-09-09T23:33:44.413Z,19.30
2018-09-09T23:37:32.038Z,19.30
2018-09-09T23:40:00.947Z,19.30
2018-09-09T23:42:29.380Z,19.20
2018-09-09T23:44:58.291Z,19.20
2018-09-09T23:47:26.884Z,19.20
2018-09-09T23:49:56.130Z,19.20
2018-09-09T23:52:24.601Z,19.20
2018-09-09T23:54:53.074Z,19.10
2018-09-09T23:57:21.545Z,19.20
2018-09-09T23:59:50.595Z,19.20
